OHCAM EFVA-EFVA
Flight info
| Callsign | OHCAM |
|---|---|
| Flight time | 0h 41m |
| Altitude | 2000 |
| Route | EFVA AREA CIRCLING / SIGHTSEEING |
| Aircraft | C172/L-SDE3FGHIRWY/LB1 |
Departure
| Time | 2026-04-25 14:41 |
|---|---|
| Airport | Vaasa Airport (EFVA) |
Arrival
| Time | 2026-04-25 15:22 |
|---|---|
| Airport | Vaasa Airport (EFVA) |
| Time | Latitude | Longitude | Altitude | Speed | Heading |
|---|---|---|---|---|---|
| 2026-04-25 14:29 | 63.04383 | 21.76168 | 18 ft | 0 kts | 284° |
| 2026-04-25 14:37 | 63.04399 | 21.76146 | 18 ft | 5 kts | 17° |
| 2026-04-25 14:37 | 63.04399 | 21.76197 | 18 ft | 4 kts | 129° |
| 2026-04-25 14:37 | 63.04385 | 21.76231 | 18 ft | 2 kts | 131° |
| 2026-04-25 14:38 | 63.04384 | 21.76234 | 18 ft | 0 kts | 131° |
| 2026-04-25 14:38 | 63.04346 | 21.76334 | 18 ft | 17 kts | 117° |
| 2026-04-25 14:38 | 63.04413 | 21.76625 | 19 ft | 26 kts | 18° |
| 2026-04-25 14:38 | 63.04570 | 21.76536 | 19 ft | 21 kts | 338° |
| 2026-04-25 14:39 | 63.04817 | 21.76375 | 20 ft | 58 kts | 341° |
| 2026-04-25 14:39 | 63.05306 | 21.76047 | 27 ft | 86 kts | 341° |
| 2026-04-25 14:39 | 63.05879 | 21.75632 | 145 ft | 88 kts | 340° |
| 2026-04-25 14:39 | 63.06455 | 21.75049 | 239 ft | 91 kts | 330° |
| 2026-04-25 14:40 | 63.06957 | 21.74256 | 363 ft | 90 kts | 319° |
| 2026-04-25 14:40 | 63.07348 | 21.73189 | 473 ft | 91 kts | 294° |
| 2026-04-25 14:40 | 63.07442 | 21.71767 | 477 ft | 99 kts | 265° |
| 2026-04-25 14:40 | 63.07300 | 21.70317 | 575 ft | 96 kts | 249° |
| 2026-04-25 14:41 | 63.06906 | 21.69128 | 646 ft | 96 kts | 228° |
| 2026-04-25 14:41 | 63.06450 | 21.68009 | 655 ft | 106 kts | 226° |
| 2026-04-25 14:41 | 63.05840 | 21.66840 | 622 ft | 118 kts | 214° |
| 2026-04-25 14:41 | 63.05154 | 21.65791 | 579 ft | 124 kts | 220° |
| 2026-04-25 14:42 | 63.04566 | 21.64453 | 537 ft | 121 kts | 236° |
| 2026-04-25 14:42 | 63.04302 | 21.63387 | 569 ft | 116 kts | 248° |
| 2026-04-25 14:42 | 63.03940 | 21.61118 | 529 ft | 117 kts | 252° |
| 2026-04-25 14:42 | 63.03667 | 21.59432 | 534 ft | 114 kts | 250° |
| 2026-04-25 14:43 | 63.03348 | 21.57769 | 468 ft | 117 kts | 248° |
| 2026-04-25 14:43 | 63.03016 | 21.56164 | 472 ft | 116 kts | 247° |
| 2026-04-25 14:43 | 63.02670 | 21.54572 | 468 ft | 115 kts | 244° |
| 2026-04-25 14:43 | 63.02303 | 21.53015 | 481 ft | 113 kts | 241° |
| 2026-04-25 14:44 | 63.01980 | 21.51466 | 489 ft | 114 kts | 250° |
| 2026-04-25 14:44 | 63.01847 | 21.49716 | 472 ft | 114 kts | 268° |
| 2026-04-25 14:44 | 63.01836 | 21.48006 | 485 ft | 113 kts | 275° |
| 2026-04-25 14:44 | 63.01980 | 21.46329 | 554 ft | 109 kts | 288° |
| 2026-04-25 14:45 | 63.02482 | 21.45059 | 515 ft | 114 kts | 330° |
| 2026-04-25 14:45 | 63.03235 | 21.44514 | 523 ft | 115 kts | 349° |
| 2026-04-25 14:45 | 63.04010 | 21.44212 | 571 ft | 112 kts | 351° |
| 2026-04-25 14:45 | 63.04795 | 21.43952 | 565 ft | 114 kts | 349° |
| 2026-04-25 14:46 | 63.05584 | 21.43570 | 533 ft | 117 kts | 346° |
| 2026-04-25 14:46 | 63.06356 | 21.43063 | 538 ft | 116 kts | 340° |
| 2026-04-25 14:46 | 63.07120 | 21.42546 | 565 ft | 113 kts | 346° |
| 2026-04-25 14:46 | 63.07898 | 21.42149 | 534 ft | 117 kts | 349° |
| 2026-04-25 14:47 | 63.08687 | 21.41829 | 564 ft | 107 kts | 352° |
| 2026-04-25 14:47 | 63.09165 | 21.41711 | 516 ft | 104 kts | 355° |
| 2026-04-25 14:47 | 63.10102 | 21.41709 | 410 ft | 104 kts | 8° |
| 2026-04-25 14:47 | 63.10843 | 21.42055 | 509 ft | 109 kts | 12° |
| 2026-04-25 14:48 | 63.11590 | 21.42471 | 559 ft | 116 kts | 16° |
| 2026-04-25 14:48 | 63.12373 | 21.43049 | 613 ft | 118 kts | 21° |
| 2026-04-25 14:48 | 63.13129 | 21.43804 | 660 ft | 120 kts | 27° |
| 2026-04-25 14:48 | 63.13886 | 21.44688 | 629 ft | 126 kts | 25° |
| 2026-04-25 14:49 | 63.14663 | 21.45361 | 774 ft | 118 kts | 16° |
| 2026-04-25 14:49 | 63.15497 | 21.45771 | 757 ft | 122 kts | 11° |
| 2026-04-25 14:49 | 63.16331 | 21.46076 | 775 ft | 124 kts | 6° |
| 2026-04-25 14:49 | 63.17205 | 21.46174 | 762 ft | 124 kts | 4° |
| 2026-04-25 14:50 | 63.18081 | 21.46204 | 716 ft | 128 kts | 355° |
| 2026-04-25 14:50 | 63.18941 | 21.45855 | 732 ft | 125 kts | 343° |
| 2026-04-25 14:50 | 63.19778 | 21.45448 | 706 ft | 127 kts | 352° |
| 2026-04-25 14:50 | 63.20654 | 21.45521 | 689 ft | 128 kts | 10° |
| 2026-04-25 14:51 | 63.21527 | 21.45914 | 682 ft | 127 kts | 9° |
| 2026-04-25 14:51 | 63.22359 | 21.46452 | 677 ft | 127 kts | 28° |
| 2026-04-25 14:51 | 63.23077 | 21.47664 | 615 ft | 129 kts | 44° |
| 2026-04-25 14:51 | 63.23716 | 21.49007 | 638 ft | 127 kts | 40° |
| 2026-04-25 14:52 | 63.24420 | 21.50206 | 616 ft | 128 kts | 44° |
| 2026-04-25 14:52 | 63.25001 | 21.51691 | 632 ft | 121 kts | 47° |
| 2026-04-25 14:52 | 63.25446 | 21.52984 | 855 ft | 103 kts | 45° |
| 2026-04-25 14:52 | 63.25781 | 21.53757 | 825 ft | 104 kts | 38° |
| 2026-04-25 14:53 | 63.26523 | 21.55046 | 861 ft | 103 kts | 38° |
| 2026-04-25 14:53 | 63.26949 | 21.56277 | 653 ft | 101 kts | 47° |
| 2026-04-25 14:53 | 63.27388 | 21.57604 | 304 ft | 108 kts | 46° |
| 2026-04-25 14:53 | 63.27713 | 21.59143 | 320 ft | 112 kts | 59° |
| 2026-04-25 14:54 | 63.28062 | 21.60679 | 339 ft | 108 kts | 47° |
| 2026-04-25 14:54 | 63.28383 | 21.62150 | 460 ft | 108 kts | 60° |
| 2026-04-25 14:54 | 63.28682 | 21.63758 | 459 ft | 111 kts | 59° |
| 2026-04-25 14:54 | 63.28892 | 21.65390 | 528 ft | 113 kts | 68° |
| 2026-04-25 14:55 | 63.28854 | 21.67135 | 626 ft | 123 kts | 102° |
| 2026-04-25 14:55 | 63.28525 | 21.68897 | 681 ft | 125 kts | 104° |
| 2026-04-25 14:55 | 63.28170 | 21.70604 | 921 ft | 113 kts | 101° |
| 2026-04-25 14:55 | 63.27902 | 21.72241 | 998 ft | 114 kts | 90° |
| 2026-04-25 14:56 | 63.27833 | 21.73966 | 1040 ft | 111 kts | 75° |
| 2026-04-25 14:56 | 63.27914 | 21.75709 | 1100 ft | 114 kts | 83° |
| 2026-04-25 14:56 | 63.27646 | 21.77340 | 1377 ft | 113 kts | 109° |
| 2026-04-25 14:56 | 63.27175 | 21.78833 | 1411 ft | 122 kts | 112° |
| 2026-04-25 14:57 | 63.26709 | 21.80369 | 1529 ft | 116 kts | 103° |
| 2026-04-25 14:57 | 63.26328 | 21.81936 | 1579 ft | 121 kts | 112° |
| 2026-04-25 14:57 | 63.25845 | 21.83472 | 1651 ft | 123 kts | 114° |
| 2026-04-25 14:57 | 63.25386 | 21.84955 | 1801 ft | 115 kts | 105° |
| 2026-04-25 14:58 | 63.24964 | 21.86509 | 1881 ft | 119 kts | 115° |
| 2026-04-25 14:58 | 63.24416 | 21.87947 | 1910 ft | 126 kts | 123° |
| 2026-04-25 14:58 | 63.23674 | 21.89087 | 1972 ft | 135 kts | 148° |
| 2026-04-25 14:58 | 63.22785 | 21.89665 | 2037 ft | 143 kts | 173° |
| 2026-04-25 14:59 | 63.21812 | 21.89471 | 2295 ft | 131 kts | 191° |
| 2026-04-25 14:59 | 63.20853 | 21.89851 | 1931 ft | 156 kts | 140° |
| 2026-04-25 14:59 | 63.19940 | 21.91207 | 1783 ft | 159 kts | 137° |
| 2026-04-25 14:59 | 63.19119 | 21.92656 | 1948 ft | 142 kts | 125° |
| 2026-04-25 15:00 | 63.18434 | 21.94268 | 1898 ft | 146 kts | 126° |
| 2026-04-25 15:00 | 63.17604 | 21.95658 | 1902 ft | 151 kts | 141° |
| 2026-04-25 15:00 | 63.16689 | 21.96836 | 1901 ft | 154 kts | 145° |
| 2026-04-25 15:00 | 63.15806 | 21.98061 | 1874 ft | 152 kts | 139° |
| 2026-04-25 15:01 | 63.14918 | 21.99405 | 1788 ft | 154 kts | 137° |
| 2026-04-25 15:01 | 63.14014 | 22.00631 | 1763 ft | 158 kts | 150° |
| 2026-04-25 15:01 | 63.12947 | 22.01210 | 1767 ft | 159 kts | 170° |
| 2026-04-25 15:01 | 63.11857 | 22.01424 | 1822 ft | 158 kts | 171° |
| 2026-04-25 15:02 | 63.10775 | 22.01941 | 1827 ft | 157 kts | 160° |
| 2026-04-25 15:02 | 63.09748 | 22.02656 | 1864 ft | 154 kts | 156° |
| 2026-04-25 15:02 | 63.08704 | 22.03376 | 1822 ft | 158 kts | 158° |
| 2026-04-25 15:02 | 63.07655 | 22.04057 | 1859 ft | 156 kts | 159° |
| 2026-04-25 15:03 | 63.06574 | 22.04572 | 1775 ft | 163 kts | 172° |
| 2026-04-25 15:03 | 63.05448 | 22.04693 | 1792 ft | 162 kts | 180° |
| 2026-04-25 15:03 | 63.04330 | 22.04409 | 1798 ft | 161 kts | 192° |
| 2026-04-25 15:03 | 63.03240 | 22.03836 | 1744 ft | 163 kts | 197° |
| 2026-04-25 15:04 | 63.02151 | 22.03206 | 1725 ft | 160 kts | 198° |
| 2026-04-25 15:04 | 63.01085 | 22.02548 | 1755 ft | 159 kts | 196° |
| 2026-04-25 15:04 | 62.99986 | 22.02202 | 1708 ft | 161 kts | 181° |
| 2026-04-25 15:04 | 62.98946 | 22.01454 | 1512 ft | 162 kts | 225° |
| 2026-04-25 15:05 | 62.98232 | 21.99690 | 1563 ft | 147 kts | 245° |
| 2026-04-25 15:05 | 62.97663 | 21.97827 | 1547 ft | 150 kts | 245° |
| 2026-04-25 15:05 | 62.96989 | 21.96042 | 1581 ft | 150 kts | 238° |
| 2026-04-25 15:06 | 62.96030 | 21.92122 | 1604 ft | 143 kts | 254° |
| 2026-04-25 15:06 | 62.95534 | 21.90193 | 1549 ft | 148 kts | 247° |
| 2026-04-25 15:06 | 62.94992 | 21.88284 | 1550 ft | 143 kts | 253° |
| 2026-04-25 15:06 | 62.94596 | 21.86284 | 1512 ft | 143 kts | 261° |
| 2026-04-25 15:07 | 62.94363 | 21.84938 | 1509 ft | 142 kts | 262° |
| 2026-04-25 15:07 | 62.93986 | 21.82922 | 1508 ft | 143 kts | 259° |
| 2026-04-25 15:07 | 62.93621 | 21.80898 | 1491 ft | 143 kts | 257° |
| 2026-04-25 15:07 | 62.93244 | 21.78862 | 1412 ft | 143 kts | 263° |
| 2026-04-25 15:08 | 62.92957 | 21.76825 | 1453 ft | 138 kts | 263° |
| 2026-04-25 15:08 | 62.92614 | 21.74791 | 1403 ft | 146 kts | 256° |
| 2026-04-25 15:08 | 62.92011 | 21.72926 | 1406 ft | 152 kts | 236° |
| 2026-04-25 15:08 | 62.91523 | 21.71026 | 1371 ft | 136 kts | 278° |
| 2026-04-25 15:09 | 62.91552 | 21.69042 | 1359 ft | 128 kts | 293° |
| 2026-04-25 15:09 | 62.91752 | 21.67165 | 1321 ft | 127 kts | 295° |
| 2026-04-25 15:09 | 62.91655 | 21.63144 | 1301 ft | 133 kts | 279° |
| 2026-04-25 15:10 | 62.91589 | 21.61101 | 1283 ft | 137 kts | 274° |
| 2026-04-25 15:10 | 62.91450 | 21.59018 | 1260 ft | 136 kts | 280° |
| 2026-04-25 15:10 | 62.91355 | 21.54933 | 1260 ft | 139 kts | 269° |
| 2026-04-25 15:11 | 62.91073 | 21.52856 | 1103 ft | 144 kts | 268° |
| 2026-04-25 15:11 | 62.90923 | 21.50758 | 1094 ft | 135 kts | 274° |
| 2026-04-25 15:11 | 62.90782 | 21.48681 | 1052 ft | 138 kts | 270° |
| 2026-04-25 15:12 | 62.90320 | 21.44607 | 1041 ft | 140 kts | 265° |
| 2026-04-25 15:12 | 62.90009 | 21.42630 | 1231 ft | 129 kts | 259° |
| 2026-04-25 15:12 | 62.89678 | 21.40943 | 1614 ft | 114 kts | 254° |
| 2026-04-25 15:12 | 62.89438 | 21.39863 | 1736 ft | 114 kts | 256° |
| 2026-04-25 15:13 | 62.88823 | 21.37958 | 1953 ft | 126 kts | 251° |
| 2026-04-25 15:13 | 62.88605 | 21.34331 | 1928 ft | 107 kts | 322° |
| 2026-04-25 15:13 | 62.89265 | 21.34122 | 1809 ft | 107 kts | 28° |
| 2026-04-25 15:14 | 62.89688 | 21.35538 | 1730 ft | 119 kts | 62° |
| 2026-04-25 15:14 | 62.89868 | 21.37307 | 1726 ft | 118 kts | 66° |
| 2026-04-25 15:14 | 62.90078 | 21.39068 | 1637 ft | 120 kts | 64° |
| 2026-04-25 15:14 | 62.90343 | 21.40761 | 1637 ft | 114 kts | 56° |
| 2026-04-25 15:15 | 62.90737 | 21.42251 | 1616 ft | 113 kts | 50° |
| 2026-04-25 15:15 | 62.91172 | 21.43626 | 1605 ft | 109 kts | 40° |
| 2026-04-25 15:15 | 62.91736 | 21.44692 | 1542 ft | 112 kts | 45° |
| 2026-04-25 15:15 | 62.92129 | 21.46204 | 1493 ft | 113 kts | 49° |
| 2026-04-25 15:16 | 62.92590 | 21.47601 | 1343 ft | 114 kts | 44° |
| 2026-04-25 15:16 | 62.93062 | 21.49245 | 988 ft | 125 kts | 53° |
| 2026-04-25 15:16 | 62.93754 | 21.52696 | 891 ft | 117 kts | 57° |
| 2026-04-25 15:17 | 62.94535 | 21.55705 | 955 ft | 111 kts | 37° |
| 2026-04-25 15:17 | 62.95046 | 21.56955 | 1008 ft | 111 kts | 47° |
| 2026-04-25 15:17 | 62.95503 | 21.58335 | 1001 ft | 112 kts | 43° |
| 2026-04-25 15:18 | 62.96014 | 21.59597 | 1029 ft | 109 kts | 41° |
| 2026-04-25 15:18 | 62.97097 | 21.61957 | 1028 ft | 107 kts | 33° |
| 2026-04-25 15:18 | 62.97704 | 21.62986 | 918 ft | 112 kts | 34° |
| 2026-04-25 15:19 | 62.98160 | 21.64461 | 851 ft | 123 kts | 58° |
| 2026-04-25 15:19 | 62.98366 | 21.65625 | 823 ft | 124 kts | 59° |
| 2026-04-25 15:19 | 62.98826 | 21.67925 | 864 ft | 117 kts | 53° |
| 2026-04-25 15:19 | 62.99204 | 21.69474 | 842 ft | 119 kts | 52° |
| 2026-04-25 15:20 | 62.99657 | 21.70946 | 882 ft | 112 kts | 45° |
| 2026-04-25 15:20 | 63.00153 | 21.72220 | 917 ft | 110 kts | 42° |
| 2026-04-25 15:20 | 63.00662 | 21.73589 | 796 ft | 118 kts | 44° |
| 2026-04-25 15:20 | 63.01207 | 21.74835 | 874 ft | 109 kts | 40° |
| 2026-04-25 15:21 | 63.01705 | 21.76155 | 835 ft | 116 kts | 45° |
| 2026-04-25 15:21 | 63.02061 | 21.77324 | 1064 ft | 62 kts | 43° |
| 2026-04-25 15:21 | 63.02450 | 21.77801 | 666 ft | 71 kts | 354° |
| 2026-04-25 15:21 | 63.02938 | 21.77614 | 374 ft | 72 kts | 353° |
| 2026-04-25 15:22 | 63.03404 | 21.77277 | 138 ft | 69 kts | 335° |
| 2026-04-25 15:22 | 63.03846 | 21.77013 | 55 ft | 71 kts | 345° |
| 2026-04-25 15:22 | 63.04294 | 21.76712 | 27 ft | 64 kts | 352° |
| 2026-04-25 15:22 | 63.04631 | 21.76502 | 19 ft | 37 kts | 335° |
| 2026-04-25 15:23 | 63.04805 | 21.76397 | 20 ft | 19 kts | 338° |
| 2026-04-25 15:23 | 63.04884 | 21.76303 | 21 ft | 8 kts | 301° |
| 2026-04-25 15:23 | 63.04884 | 21.76170 | 20 ft | 9 kts | 263° |
| 2026-04-25 15:23 | 63.04860 | 21.76032 | 20 ft | 10 kts | 203° |
| 2026-04-25 15:24 | 63.04770 | 21.76048 | 20 ft | 17 kts | 163° |
| 2026-04-25 15:24 | 63.04657 | 21.76111 | 19 ft | 16 kts | 162° |
| 2026-04-25 15:24 | 63.04552 | 21.76182 | 19 ft | 15 kts | 164° |
| 2026-04-25 15:24 | 63.04488 | 21.76235 | 18 ft | 14 kts | 161° |
| 2026-04-25 15:25 | 63.04375 | 21.76311 | 18 ft | 8 kts | 160° |
| 2026-04-25 15:25 | 63.04371 | 21.76268 | 18 ft | 3 kts | 312° |
| 2026-04-25 15:25 | 63.04376 | 21.76242 | 18 ft | 2 kts | 284° |
| 2026-04-25 15:25 | 63.04384 | 21.76171 | 18 ft | 0 kts | 296° |